sensor_id;sensor_type;location;lat;lon;timestamp;temperature;humidity
20654;DHT22;21083;50.898;4.902;2023-09-30T00:00:07;14.50;99.90
20654;DHT22;21083;50.898;4.902;2023-09-30T00:02:35;14.60;99.90
20654;DHT22;21083;50.898;4.902;2023-09-30T00:05:01;14.60;99.90
20654;DHT22;21083;50.898;4.902;2023-09-30T00:07:29;14.60;99.90
20654;DHT22;21083;50.898;4.902;2023-09-30T00:09:58;14.70;99.90
20654;DHT22;21083;50.898;4.902;2023-09-30T00:12:25;14.70;99.90
20654;DHT22;21083;50.898;4.902;2023-09-30T00:14:52;14.60;99.90
20654;DHT22;21083;50.898;4.902;2023-09-30T00:17:19;14.60;99.90
20654;DHT22;21083;50.898;4.902;2023-09-30T00:19:46;14.60;99.90
20654;DHT22;21083;50.898;4.902;2023-09-30T00:22:13;14.50;99.90
20654;DHT22;21083;50.898;4.902;2023-09-30T00:24:40;14.50;99.90
20654;DHT22;21083;50.898;4.902;2023-09-30T00:27:08;14.60;99.90
20654;DHT22;21083;50.898;4.902;2023-09-30T00:29:35;14.50;99.90
20654;DHT22;21083;50.898;4.902;2023-09-30T00:32:03;14.60;99.90
20654;DHT22;21083;50.898;4.902;2023-09-30T00:34:32;14.50;99.90
20654;DHT22;21083;50.898;4.902;2023-09-30T00:37:00;14.60;99.90
20654;DHT22;21083;50.898;4.902;2023-09-30T00:39:27;14.60;99.90
20654;DHT22;21083;50.898;4.902;2023-09-30T00:41:56;14.60;99.90
20654;DHT22;21083;50.898;4.902;2023-09-30T00:44:25;14.50;99.90
20654;DHT22;21083;50.898;4.902;2023-09-30T00:46:54;14.50;99.90
20654;DHT22;21083;50.898;4.902;2023-09-30T00:49:21;14.60;99.90
20654;DHT22;21083;50.898;4.902;2023-09-30T00:51:49;14.60;99.90
20654;DHT22;21083;50.898;4.902;2023-09-30T00:54:17;14.60;99.90
20654;DHT22;21083;50.898;4.902;2023-09-30T00:56:46;14.60;99.90
20654;DHT22;21083;50.898;4.902;2023-09-30T00:59:13;14.50;99.90
20654;DHT22;21083;50.898;4.902;2023-09-30T01:01:43;14.60;99.90
20654;DHT22;21083;50.898;4.902;2023-09-30T01:04:11;14.60;99.90
20654;DHT22;21083;50.898;4.902;2023-09-30T01:06:38;14.60;99.90
20654;DHT22;21083;50.898;4.902;2023-09-30T01:09:05;14.70;99.90
20654;DHT22;21083;50.898;4.902;2023-09-30T01:11:32;14.70;99.90
20654;DHT22;21083;50.898;4.902;2023-09-30T01:13:59;14.70;99.90
20654;DHT22;21083;50.898;4.902;2023-09-30T01:16:26;14.80;99.90
20654;DHT22;21083;50.898;4.902;2023-09-30T01:18:55;14.80;99.90
20654;DHT22;21083;50.898;4.902;2023-09-30T01:21:23;14.70;99.90
20654;DHT22;21083;50.898;4.902;2023-09-30T01:23:51;14.80;99.90
20654;DHT22;21083;50.898;4.902;2023-09-30T01:26:18;14.80;99.90
20654;DHT22;21083;50.898;4.902;2023-09-30T01:28:45;14.80;99.90
20654;DHT22;21083;50.898;4.902;2023-09-30T01:31:14;14.80;99.90
20654;DHT22;21083;50.898;4.902;2023-09-30T01:33:41;14.80;99.90
20654;DHT22;21083;50.898;4.902;2023-09-30T01:36:09;14.80;99.90
20654;DHT22;21083;50.898;4.902;2023-09-30T01:38:36;14.70;99.90
20654;DHT22;21083;50.898;4.902;2023-09-30T01:41:05;14.70;99.90
20654;DHT22;21083;50.898;4.902;2023-09-30T01:43:31;14.70;99.90
20654;DHT22;21083;50.898;4.902;2023-09-30T01:46:01;14.60;99.90
20654;DHT22;21083;50.898;4.902;2023-09-30T01:48:28;14.60;99.90
20654;DHT22;21083;50.898;4.902;2023-09-30T01:50:55;14.60;99.90
20654;DHT22;21083;50.898;4.902;2023-09-30T01:53:22;14.60;99.90
20654;DHT22;21083;50.898;4.902;2023-09-30T01:55:49;14.60;99.90
20654;DHT22;21083;50.898;4.902;2023-09-30T01:58:18;14.50;99.90
20654;DHT22;21083;50.898;4.902;2023-09-30T02:00:45;14.50;99.90
20654;DHT22;21083;50.898;4.902;2023-09-30T02:03:12;14.40;99.90
20654;DHT22;21083;50.898;4.902;2023-09-30T02:05:39;14.50;99.90
20654;DHT22;21083;50.898;4.902;2023-09-30T02:08:06;14.50;99.90
20654;DHT22;21083;50.898;4.902;2023-09-30T02:10:34;14.50;99.90
20654;DHT22;21083;50.898;4.902;2023-09-30T02:13:01;14.40;99.90
20654;DHT22;21083;50.898;4.902;2023-09-30T02:15:33;14.40;99.90
20654;DHT22;21083;50.898;4.902;2023-09-30T02:18:00;14.40;99.90
20654;DHT22;21083;50.898;4.902;2023-09-30T02:20:27;14.40;99.90
20654;DHT22;21083;50.898;4.902;2023-09-30T02:22:56;14.40;99.90
20654;DHT22;21083;50.898;4.902;2023-09-30T02:25:24;14.30;99.90
20654;DHT22;21083;50.898;4.902;2023-09-30T02:27:51;14.30;99.90
20654;DHT22;21083;50.898;4.902;2023-09-30T02:30:18;14.30;99.90
20654;DHT22;21083;50.898;4.902;2023-09-30T02:32:48;14.40;99.90
20654;DHT22;21083;50.898;4.902;2023-09-30T02:35:15;14.30;99.90
20654;DHT22;21083;50.898;4.902;2023-09-30T02:37:42;14.30;99.90
20654;DHT22;21083;50.898;4.902;2023-09-30T02:40:09;14.30;99.90
20654;DHT22;21083;50.898;4.902;2023-09-30T02:42:36;14.30;99.90
20654;DHT22;21083;50.898;4.902;2023-09-30T02:45:05;14.30;99.90
20654;DHT22;21083;50.898;4.902;2023-09-30T02:47:34;14.20;99.90
20654;DHT22;21083;50.898;4.902;2023-09-30T02:50:04;14.20;99.90
20654;DHT22;21083;50.898;4.902;2023-09-30T02:52:31;14.00;99.90
20654;DHT22;21083;50.898;4.902;2023-09-30T02:54:58;14.10;99.90
20654;DHT22;21083;50.898;4.902;2023-09-30T02:57:26;14.00;99.90
20654;DHT22;21083;50.898;4.902;2023-09-30T02:59:53;14.10;99.90
20654;DHT22;21083;50.898;4.902;2023-09-30T03:02:22;14.10;99.90
20654;DHT22;21083;50.898;4.902;2023-09-30T03:04:49;14.10;99.90
20654;DHT22;21083;50.898;4.902;2023-09-30T03:07:20;14.10;99.90
20654;DHT22;21083;50.898;4.902;2023-09-30T03:09:47;14.10;99.90
20654;DHT22;21083;50.898;4.902;2023-09-30T03:12:14;14.10;99.90
20654;DHT22;21083;50.898;4.902;2023-09-30T03:14:41;14.00;99.90
20654;DHT22;21083;50.898;4.902;2023-09-30T03:17:09;14.00;99.90
20654;DHT22;21083;50.898;4.902;2023-09-30T03:19:37;14.10;99.90
20654;DHT22;21083;50.898;4.902;2023-09-30T03:22:05;14.10;99.90
20654;DHT22;21083;50.898;4.902;2023-09-30T03:24:39;14.10;99.90
20654;DHT22;21083;50.898;4.902;2023-09-30T03:27:06;14.10;99.90
20654;DHT22;21083;50.898;4.902;2023-09-30T03:29:35;14.10;99.90
20654;DHT22;21083;50.898;4.902;2023-09-30T03:32:03;14.10;99.90
20654;DHT22;21083;50.898;4.902;2023-09-30T03:34:30;14.10;99.90
20654;DHT22;21083;50.898;4.902;2023-09-30T03:36:57;14.10;99.90
20654;DHT22;21083;50.898;4.902;2023-09-30T03:39:25;14.20;99.90
20654;DHT22;21083;50.898;4.902;2023-09-30T03:41:54;14.20;99.90
20654;DHT22;21083;50.898;4.902;2023-09-30T03:44:21;14.20;99.90
20654;DHT22;21083;50.898;4.902;2023-09-30T03:46:50;14.20;99.90
20654;DHT22;21083;50.898;4.902;2023-09-30T03:49:17;14.20;99.90
20654;DHT22;21083;50.898;4.902;2023-09-30T03:51:45;14.10;99.90
20654;DHT22;21083;50.898;4.902;2023-09-30T03:54:12;14.10;99.90
20654;DHT22;21083;50.898;4.902;2023-09-30T03:56:39;14.10;99.90
20654;DHT22;21083;50.898;4.902;2023-09-30T03:59:08;14.10;99.90
20654;DHT22;21083;50.898;4.902;2023-09-30T04:01:35;14.10;99.90
20654;DHT22;21083;50.898;4.902;2023-09-30T04:04:06;14.10;99.90
20654;DHT22;21083;50.898;4.902;2023-09-30T04:06:35;14.10;99.90
20654;DHT22;21083;50.898;4.902;2023-09-30T04:09:04;14.00;99.90
20654;DHT22;21083;50.898;4.902;2023-09-30T04:11:35;14.00;99.90
20654;DHT22;21083;50.898;4.902;2023-09-30T04:14:03;14.00;99.90
20654;DHT22;21083;50.898;4.902;2023-09-30T04:16:32;14.00;99.90
20654;DHT22;21083;50.898;4.902;2023-09-30T04:18:59;14.00;99.90
20654;DHT22;21083;50.898;4.902;2023-09-30T04:21:26;13.90;99.90
20654;DHT22;21083;50.898;4.902;2023-09-30T04:23:55;13.90;99.90
20654;DHT22;21083;50.898;4.902;2023-09-30T04:26:23;13.90;99.90
20654;DHT22;21083;50.898;4.902;2023-09-30T04:28:51;13.90;99.90
20654;DHT22;21083;50.898;4.902;2023-09-30T04:31:19;13.90;99.90
20654;DHT22;21083;50.898;4.902;2023-09-30T04:33:48;14.00;99.90
20654;DHT22;21083;50.898;4.902;2023-09-30T04:36:16;13.90;99.90
20654;DHT22;21083;50.898;4.902;2023-09-30T04:38:44;13.90;99.90
20654;DHT22;21083;50.898;4.902;2023-09-30T04:41:11;13.80;99.90
20654;DHT22;21083;50.898;4.902;2023-09-30T04:43:38;13.90;99.90
20654;DHT22;21083;50.898;4.902;2023-09-30T04:46:05;13.80;99.90
20654;DHT22;21083;50.898;4.902;2023-09-30T04:48:34;13.80;99.90
20654;DHT22;21083;50.898;4.902;2023-09-30T04:51:06;13.80;99.90
20654;DHT22;21083;50.898;4.902;2023-09-30T04:53:33;13.70;99.90
20654;DHT22;21083;50.898;4.902;2023-09-30T04:56:00;13.70;99.90
20654;DHT22;21083;50.898;4.902;2023-09-30T04:58:28;13.70;99.90
20654;DHT22;21083;50.898;4.902;2023-09-30T05:00:57;13.70;99.90
20654;DHT22;21083;50.898;4.902;2023-09-30T05:03:24;13.60;99.90
20654;DHT22;21083;50.898;4.902;2023-09-30T05:05:51;13.60;99.90
20654;DHT22;21083;50.898;4.902;2023-09-30T05:08:23;13.70;99.90
20654;DHT22;21083;50.898;4.902;2023-09-30T05:10:50;13.70;99.90
20654;DHT22;21083;50.898;4.902;2023-09-30T05:13:17;13.60;99.90
20654;DHT22;21083;50.898;4.902;2023-09-30T05:15:44;13.50;99.90
20654;DHT22;21083;50.898;4.902;2023-09-30T05:18:12;13.50;99.90
20654;DHT22;21083;50.898;4.902;2023-09-30T05:20:39;13.50;99.90
20654;DHT22;21083;50.898;4.902;2023-09-30T05:23:06;13.50;99.90
20654;DHT22;21083;50.898;4.902;2023-09-30T05:25:35;13.50;99.90
20654;DHT22;21083;50.898;4.902;2023-09-30T05:28:03;13.40;99.90
20654;DHT22;21083;50.898;4.902;2023-09-30T05:30:30;13.50;99.90
20654;DHT22;21083;50.898;4.902;2023-09-30T05:32:57;13.50;99.90
20654;DHT22;21083;50.898;4.902;2023-09-30T05:35:24;13.50;99.90
20654;DHT22;21083;50.898;4.902;2023-09-30T05:37:51;13.40;99.90
20654;DHT22;21083;50.898;4.902;2023-09-30T05:40:19;13.40;99.90
20654;DHT22;21083;50.898;4.902;2023-09-30T05:42:53;13.30;99.90
20654;DHT22;21083;50.898;4.902;2023-09-30T05:45:22;13.30;99.90
20654;DHT22;21083;50.898;4.902;2023-09-30T05:47:52;13.30;99.90
20654;DHT22;21083;50.898;4.902;2023-09-30T05:50:20;13.40;99.90
20654;DHT22;21083;50.898;4.902;2023-09-30T05:52:50;13.40;99.90
20654;DHT22;21083;50.898;4.902;2023-09-30T05:55:17;13.40;99.90
20654;DHT22;21083;50.898;4.902;2023-09-30T05:57:46;13.40;99.90
20654;DHT22;21083;50.898;4.902;2023-09-30T06:00:15;13.40;99.90
20654;DHT22;21083;50.898;4.902;2023-09-30T06:02:47;13.50;99.90
20654;DHT22;21083;50.898;4.902;2023-09-30T06:05:15;13.50;99.90
20654;DHT22;21083;50.898;4.902;2023-09-30T06:07:44;13.50;99.90
20654;DHT22;21083;50.898;4.902;2023-09-30T06:10:12;13.50;99.90
20654;DHT22;21083;50.898;4.902;2023-09-30T06:12:44;13.50;99.90
20654;DHT22;21083;50.898;4.902;2023-09-30T06:15:12;13.50;99.90
20654;DHT22;21083;50.898;4.902;2023-09-30T06:17:41;13.60;99.90
20654;DHT22;21083;50.898;4.902;2023-09-30T06:20:10;13.60;99.90
20654;DHT22;21083;50.898;4.902;2023-09-30T06:22:42;13.60;99.90
20654;DHT22;21083;50.898;4.902;2023-09-30T06:25:11;13.60;99.90
20654;DHT22;21083;50.898;4.902;2023-09-30T06:27:38;13.60;99.90
20654;DHT22;21083;50.898;4.902;2023-09-30T06:30:06;13.70;99.90
20654;DHT22;21083;50.898;4.902;2023-09-30T06:32:34;13.60;99.90
20654;DHT22;21083;50.898;4.902;2023-09-30T06:35:04;13.70;99.90
20654;DHT22;21083;50.898;4.902;2023-09-30T06:37:32;13.70;99.90
20654;DHT22;21083;50.898;4.902;2023-09-30T06:39:59;13.70;99.90
20654;DHT22;21083;50.898;4.902;2023-09-30T06:42:29;13.80;99.90
20654;DHT22;21083;50.898;4.902;2023-09-30T06:44:56;13.80;99.90
20654;DHT22;21083;50.898;4.902;2023-09-30T06:47:24;13.80;99.90
20654;DHT22;21083;50.898;4.902;2023-09-30T06:49:51;13.80;99.90
20654;DHT22;21083;50.898;4.902;2023-09-30T06:52:19;13.80;99.90
20654;DHT22;21083;50.898;4.902;2023-09-30T06:54:46;13.90;99.90
20654;DHT22;21083;50.898;4.902;2023-09-30T06:57:13;13.80;99.90
20654;DHT22;21083;50.898;4.902;2023-09-30T06:59:40;13.80;99.90
20654;DHT22;21083;50.898;4.902;2023-09-30T07:02:07;13.90;99.90
20654;DHT22;21083;50.898;4.902;2023-09-30T07:04:34;13.90;99.90
20654;DHT22;21083;50.898;4.902;2023-09-30T07:07:01;13.90;99.90
20654;DHT22;21083;50.898;4.902;2023-09-30T07:09:29;13.80;99.90
20654;DHT22;21083;50.898;4.902;2023-09-30T07:11:56;13.90;99.90
20654;DHT22;21083;50.898;4.902;2023-09-30T07:14:23;13.90;99.90
20654;DHT22;21083;50.898;4.902;2023-09-30T07:16:51;13.90;99.90
20654;DHT22;21083;50.898;4.902;2023-09-30T07:19:18;13.90;99.90
20654;DHT22;21083;50.898;4.902;2023-09-30T07:21:45;13.90;99.90
20654;DHT22;21083;50.898;4.902;2023-09-30T07:24:12;13.90;99.90
20654;DHT22;21083;50.898;4.902;2023-09-30T07:26:42;14.00;99.90
20654;DHT22;21083;50.898;4.902;2023-09-30T07:29:11;14.00;99.90
20654;DHT22;21083;50.898;4.902;2023-09-30T07:31:38;14.00;99.90
20654;DHT22;21083;50.898;4.902;2023-09-30T07:34:05;14.10;99.90
20654;DHT22;21083;50.898;4.902;2023-09-30T07:36:32;14.10;99.90
20654;DHT22;21083;50.898;4.902;2023-09-30T07:38:59;14.10;99.90
20654;DHT22;21083;50.898;4.902;2023-09-30T07:41:27;14.20;99.90
20654;DHT22;21083;50.898;4.902;2023-09-30T07:43:55;14.20;99.90
20654;DHT22;21083;50.898;4.902;2023-09-30T07:46:22;14.20;99.90
20654;DHT22;21083;50.898;4.902;2023-09-30T07:48:49;14.20;99.90
20654;DHT22;21083;50.898;4.902;2023-09-30T07:51:16;14.30;99.90
20654;DHT22;21083;50.898;4.902;2023-09-30T07:53:43;14.30;99.90
20654;DHT22;21083;50.898;4.902;2023-09-30T07:56:10;14.30;99.90
20654;DHT22;21083;50.898;4.902;2023-09-30T07:58:38;14.40;99.90
20654;DHT22;21083;50.898;4.902;2023-09-30T08:01:07;14.40;99.90
20654;DHT22;21083;50.898;4.902;2023-09-30T08:03:34;14.50;99.90
20654;DHT22;21083;50.898;4.902;2023-09-30T08:06:03;14.60;99.90
20654;DHT22;21083;50.898;4.902;2023-09-30T08:08:30;14.60;99.90
20654;DHT22;21083;50.898;4.902;2023-09-30T08:10:57;14.70;99.90
20654;DHT22;21083;50.898;4.902;2023-09-30T08:13:25;14.80;99.90
20654;DHT22;21083;50.898;4.902;2023-09-30T08:15:52;14.90;99.90
20654;DHT22;21083;50.898;4.902;2023-09-30T08:18:21;14.90;99.90
20654;DHT22;21083;50.898;4.902;2023-09-30T08:20:48;15.00;99.90
20654;DHT22;21083;50.898;4.902;2023-09-30T08:23:15;15.00;99.90
20654;DHT22;21083;50.898;4.902;2023-09-30T08:25:43;15.10;99.90
20654;DHT22;21083;50.898;4.902;2023-09-30T08:28:10;15.20;99.90
20654;DHT22;21083;50.898;4.902;2023-09-30T08:30:37;15.20;99.90
20654;DHT22;21083;50.898;4.902;2023-09-30T08:33:04;15.30;99.90
20654;DHT22;21083;50.898;4.902;2023-09-30T08:35:36;15.40;99.90
20654;DHT22;21083;50.898;4.902;2023-09-30T08:38:04;15.50;99.90
20654;DHT22;21083;50.898;4.902;2023-09-30T08:40:31;15.60;99.90
20654;DHT22;21083;50.898;4.902;2023-09-30T08:42:58;15.60;99.90
20654;DHT22;21083;50.898;4.902;2023-09-30T08:45:28;15.70;99.90
20654;DHT22;21083;50.898;4.902;2023-09-30T08:47:57;15.70;99.90
20654;DHT22;21083;50.898;4.902;2023-09-30T08:50:30;15.80;99.90
20654;DHT22;21083;50.898;4.902;2023-09-30T08:53:00;15.90;99.90
20654;DHT22;21083;50.898;4.902;2023-09-30T08:55:29;16.00;99.90
20654;DHT22;21083;50.898;4.902;2023-09-30T08:57:58;16.10;99.90
20654;DHT22;21083;50.898;4.902;2023-09-30T09:00:26;16.30;99.90
20654;DHT22;21083;50.898;4.902;2023-09-30T09:02:53;16.30;99.90
20654;DHT22;21083;50.898;4.902;2023-09-30T09:05:20;16.50;99.90
20654;DHT22;21083;50.898;4.902;2023-09-30T09:07:47;16.50;99.90
20654;DHT22;21083;50.898;4.902;2023-09-30T09:10:17;16.60;99.90
20654;DHT22;21083;50.898;4.902;2023-09-30T09:12:54;16.70;99.90
20654;DHT22;21083;50.898;4.902;2023-09-30T09:15:24;16.80;99.90
20654;DHT22;21083;50.898;4.902;2023-09-30T09:17:52;17.00;99.90
20654;DHT22;21083;50.898;4.902;2023-09-30T09:20:21;17.20;99.90
20654;DHT22;21083;50.898;4.902;2023-09-30T09:22:49;17.20;99.90
20654;DHT22;21083;50.898;4.902;2023-09-30T09:25:21;17.30;99.90
20654;DHT22;21083;50.898;4.902;2023-09-30T09:27:50;17.40;99.90
20654;DHT22;21083;50.898;4.902;2023-09-30T09:30:18;17.40;99.90
20654;DHT22;21083;50.898;4.902;2023-09-30T09:32:58;17.70;99.90
20654;DHT22;21083;50.898;4.902;2023-09-30T09:35:26;17.80;99.90
20654;DHT22;21083;50.898;4.902;2023-09-30T09:37:55;17.90;99.90
20654;DHT22;21083;50.898;4.902;2023-09-30T09:40:26;18.00;99.90
20654;DHT22;21083;50.898;4.902;2023-09-30T09:42:54;18.00;99.90
20654;DHT22;21083;50.898;4.902;2023-09-30T09:45:22;18.20;99.90
20654;DHT22;21083;50.898;4.902;2023-09-30T09:47:50;18.40;99.90
20654;DHT22;21083;50.898;4.902;2023-09-30T09:50:19;18.60;99.90
20654;DHT22;21083;50.898;4.902;2023-09-30T09:52:48;18.80;99.90
20654;DHT22;21083;50.898;4.902;2023-09-30T09:55:17;18.90;99.90
20654;DHT22;21083;50.898;4.902;2023-09-30T09:57:46;19.00;99.90
20654;DHT22;21083;50.898;4.902;2023-09-30T10:00:15;19.30;99.90
20654;DHT22;21083;50.898;4.902;2023-09-30T10:02:44;19.40;99.90
20654;DHT22;21083;50.898;4.902;2023-09-30T10:05:12;19.40;99.90
20654;DHT22;21083;50.898;4.902;2023-09-30T10:07:43;19.50;99.90
20654;DHT22;21083;50.898;4.902;2023-09-30T10:10:14;19.70;99.90
20654;DHT22;21083;50.898;4.902;2023-09-30T10:12:42;19.80;99.90
20654;DHT22;21083;50.898;4.902;2023-09-30T10:15:36;20.00;99.90
20654;DHT22;21083;50.898;4.902;2023-09-30T10:18:06;20.10;99.90
20654;DHT22;21083;50.898;4.902;2023-09-30T10:20:36;20.10;99.90
20654;DHT22;21083;50.898;4.902;2023-09-30T10:23:23;20.00;99.90
20654;DHT22;21083;50.898;4.902;2023-09-30T10:25:53;19.70;99.90
20654;DHT22;21083;50.898;4.902;2023-09-30T10:28:37;19.60;99.90
20654;DHT22;21083;50.898;4.902;2023-09-30T10:31:10;19.50;99.90
20654;DHT22;21083;50.898;4.902;2023-09-30T10:34:19;19.40;99.90
20654;DHT22;21083;50.898;4.902;2023-09-30T10:36:48;19.30;99.90
20654;DHT22;21083;50.898;4.902;2023-09-30T10:39:53;19.30;99.90
20654;DHT22;21083;50.898;4.902;2023-09-30T10:42:46;19.40;99.90
20654;DHT22;21083;50.898;4.902;2023-09-30T10:48:38;19.10;99.90
20654;DHT22;21083;50.898;4.902;2023-09-30T10:51:17;19.40;99.90
20654;DHT22;21083;50.898;4.902;2023-09-30T10:53:48;19.40;99.90
20654;DHT22;21083;50.898;4.902;2023-09-30T10:56:17;19.50;99.90
20654;DHT22;21083;50.898;4.902;2023-09-30T10:58:46;19.50;99.90
20654;DHT22;21083;50.898;4.902;2023-09-30T11:01:14;19.60;99.90
20654;DHT22;21083;50.898;4.902;2023-09-30T11:03:44;20.00;99.90
20654;DHT22;21083;50.898;4.902;2023-09-30T11:06:12;20.50;99.90
20654;DHT22;21083;50.898;4.902;2023-09-30T11:08:47;21.00;99.90
20654;DHT22;21083;50.898;4.902;2023-09-30T11:11:16;21.20;99.90
20654;DHT22;21083;50.898;4.902;2023-09-30T11:13:43;21.40;99.90
20654;DHT22;21083;50.898;4.902;2023-09-30T11:16:10;21.50;99.90
20654;DHT22;21083;50.898;4.902;2023-09-30T11:18:37;21.70;99.90
20654;DHT22;21083;50.898;4.902;2023-09-30T11:21:10;21.80;99.90
20654;DHT22;21083;50.898;4.902;2023-09-30T11:23:39;22.10;99.90
20654;DHT22;21083;50.898;4.902;2023-09-30T11:26:07;22.20;99.90
20654;DHT22;21083;50.898;4.902;2023-09-30T11:28:39;22.30;99.90
20654;DHT22;21083;50.898;4.902;2023-09-30T11:31:11;22.20;99.90
20654;DHT22;21083;50.898;4.902;2023-09-30T11:33:50;22.40;99.90
20654;DHT22;21083;50.898;4.902;2023-09-30T11:36:20;22.40;99.90
20654;DHT22;21083;50.898;4.902;2023-09-30T11:38:49;22.70;99.90
20654;DHT22;21083;50.898;4.902;2023-09-30T11:41:18;22.70;99.90
20654;DHT22;21083;50.898;4.902;2023-09-30T11:44:05;22.90;99.90
20654;DHT22;21083;50.898;4.902;2023-09-30T11:46:46;22.90;99.90
20654;DHT22;21083;50.898;4.902;2023-09-30T11:49:25;22.70;99.90
20654;DHT22;21083;50.898;4.902;2023-09-30T11:51:54;22.20;99.90
20654;DHT22;21083;50.898;4.902;2023-09-30T11:54:22;22.10;99.90
20654;DHT22;21083;50.898;4.902;2023-09-30T11:56:49;22.00;99.90
20654;DHT22;21083;50.898;4.902;2023-09-30T11:59:17;22.30;99.90
20654;DHT22;21083;50.898;4.902;2023-09-30T12:01:48;22.80;99.90
20654;DHT22;21083;50.898;4.902;2023-09-30T12:04:15;23.10;99.90
20654;DHT22;21083;50.898;4.902;2023-09-30T12:06:45;23.50;99.90
20654;DHT22;21083;50.898;4.902;2023-09-30T12:09:15;23.70;99.90
20654;DHT22;21083;50.898;4.902;2023-09-30T12:11:47;23.60;99.90
20654;DHT22;21083;50.898;4.902;2023-09-30T12:14:14;23.70;99.90
20654;DHT22;21083;50.898;4.902;2023-09-30T12:16:42;23.60;99.90
20654;DHT22;21083;50.898;4.902;2023-09-30T12:19:10;23.40;99.90
20654;DHT22;21083;50.898;4.902;2023-09-30T12:21:39;23.70;99.90
20654;DHT22;21083;50.898;4.902;2023-09-30T12:24:07;23.90;99.90
20654;DHT22;21083;50.898;4.902;2023-09-30T12:26:36;24.50;99.90
20654;DHT22;21083;50.898;4.902;2023-09-30T12:29:04;24.80;99.90
20654;DHT22;21083;50.898;4.902;2023-09-30T12:31:31;25.00;99.90
20654;DHT22;21083;50.898;4.902;2023-09-30T12:33:59;25.20;99.90
20654;DHT22;21083;50.898;4.902;2023-09-30T12:36:28;25.50;99.90
20654;DHT22;21083;50.898;4.902;2023-09-30T12:38:55;25.40;99.90
20654;DHT22;21083;50.898;4.902;2023-09-30T12:41:22;25.20;99.90
20654;DHT22;21083;50.898;4.902;2023-09-30T12:43:50;25.10;99.90
20654;DHT22;21083;50.898;4.902;2023-09-30T12:46:19;24.90;99.90
20654;DHT22;21083;50.898;4.902;2023-09-30T12:48:46;24.90;99.90
20654;DHT22;21083;50.898;4.902;2023-09-30T12:51:14;24.70;99.90
20654;DHT22;21083;50.898;4.902;2023-09-30T12:53:41;24.70;99.90
20654;DHT22;21083;50.898;4.902;2023-09-30T12:56:08;24.40;99.90
20654;DHT22;21083;50.898;4.902;2023-09-30T12:58:35;24.60;99.90
20654;DHT22;21083;50.898;4.902;2023-09-30T13:01:05;24.70;99.90
20654;DHT22;21083;50.898;4.902;2023-09-30T13:03:33;24.90;99.90
20654;DHT22;21083;50.898;4.902;2023-09-30T13:06:01;25.20;99.90
20654;DHT22;21083;50.898;4.902;2023-09-30T13:08:29;25.30;99.90
20654;DHT22;21083;50.898;4.902;2023-09-30T13:10:59;24.90;99.90
20654;DHT22;21083;50.898;4.902;2023-09-30T13:13:28;25.10;99.90
20654;DHT22;21083;50.898;4.902;2023-09-30T13:15:56;25.30;99.90
20654;DHT22;21083;50.898;4.902;2023-09-30T13:18:25;25.80;99.90
20654;DHT22;21083;50.898;4.902;2023-09-30T13:20:52;26.30;99.90
20654;DHT22;21083;50.898;4.902;2023-09-30T13:23:19;26.80;99.90
20654;DHT22;21083;50.898;4.902;2023-09-30T13:25:46;27.10;99.90
20654;DHT22;21083;50.898;4.902;2023-09-30T13:28:16;27.20;99.90
20654;DHT22;21083;50.898;4.902;2023-09-30T13:30:43;27.00;99.90
20654;DHT22;21083;50.898;4.902;2023-09-30T13:33:11;27.00;99.90
20654;DHT22;21083;50.898;4.902;2023-09-30T13:35:39;27.20;99.90
20654;DHT22;21083;50.898;4.902;2023-09-30T13:38:06;27.00;99.90
20654;DHT22;21083;50.898;4.902;2023-09-30T13:40:33;26.90;99.90
20654;DHT22;21083;50.898;4.902;2023-09-30T13:43:01;27.20;99.90
20654;DHT22;21083;50.898;4.902;2023-09-30T13:45:30;26.90;99.90
20654;DHT22;21083;50.898;4.902;2023-09-30T13:47:58;27.00;99.90
20654;DHT22;21083;50.898;4.902;2023-09-30T13:50:26;27.10;99.90
20654;DHT22;21083;50.898;4.902;2023-09-30T13:52:55;27.20;99.90
20654;DHT22;21083;50.898;4.902;2023-09-30T13:55:23;27.20;99.90
20654;DHT22;21083;50.898;4.902;2023-09-30T13:57:51;27.30;99.90
20654;DHT22;21083;50.898;4.902;2023-09-30T14:00:18;27.70;99.90
20654;DHT22;21083;50.898;4.902;2023-09-30T14:02:45;27.50;99.90
20654;DHT22;21083;50.898;4.902;2023-09-30T14:05:12;27.30;99.90
20654;DHT22;21083;50.898;4.902;2023-09-30T14:07:40;27.50;99.90
20654;DHT22;21083;50.898;4.902;2023-09-30T14:10:09;27.80;99.90
20654;DHT22;21083;50.898;4.902;2023-09-30T14:12:36;28.00;99.90
20654;DHT22;21083;50.898;4.902;2023-09-30T14:15:05;28.00;99.90
20654;DHT22;21083;50.898;4.902;2023-09-30T14:17:32;27.90;99.90
20654;DHT22;21083;50.898;4.902;2023-09-30T14:20:00;27.50;99.90
20654;DHT22;21083;50.898;4.902;2023-09-30T14:22:28;26.80;99.90
20654;DHT22;21083;50.898;4.902;2023-09-30T14:24:55;26.50;99.90
20654;DHT22;21083;50.898;4.902;2023-09-30T14:27:23;26.20;99.90
20654;DHT22;21083;50.898;4.902;2023-09-30T14:29:51;26.20;99.90
20654;DHT22;21083;50.898;4.902;2023-09-30T14:32:18;26.50;99.90
20654;DHT22;21083;50.898;4.902;2023-09-30T14:34:45;26.60;99.90
20654;DHT22;21083;50.898;4.902;2023-09-30T14:37:12;26.70;99.90
20654;DHT22;21083;50.898;4.902;2023-09-30T14:39:39;27.00;99.90
20654;DHT22;21083;50.898;4.902;2023-09-30T14:42:06;27.30;99.90
20654;DHT22;21083;50.898;4.902;2023-09-30T14:44:35;27.10;99.90
20654;DHT22;21083;50.898;4.902;2023-09-30T14:47:02;27.10;99.90
20654;DHT22;21083;50.898;4.902;2023-09-30T14:49:30;27.10;99.90
20654;DHT22;21083;50.898;4.902;2023-09-30T14:51:57;26.70;99.90
20654;DHT22;21083;50.898;4.902;2023-09-30T14:54:24;26.90;99.90
20654;DHT22;21083;50.898;4.902;2023-09-30T14:56:51;27.50;99.90
20654;DHT22;21083;50.898;4.902;2023-09-30T14:59:18;27.80;99.90
20654;DHT22;21083;50.898;4.902;2023-09-30T15:01:47;28.30;99.90
20654;DHT22;21083;50.898;4.902;2023-09-30T15:04:15;28.90;99.90
20654;DHT22;21083;50.898;4.902;2023-09-30T15:06:42;29.20;99.90
20654;DHT22;21083;50.898;4.902;2023-09-30T15:09:09;29.50;99.90
20654;DHT22;21083;50.898;4.902;2023-09-30T15:11:37;29.40;99.90
20654;DHT22;21083;50.898;4.902;2023-09-30T15:14:04;29.40;99.90
20654;DHT22;21083;50.898;4.902;2023-09-30T15:16:31;29.30;99.90
20654;DHT22;21083;50.898;4.902;2023-09-30T15:19:00;29.70;99.90
20654;DHT22;21083;50.898;4.902;2023-09-30T15:21:27;29.70;99.90
20654;DHT22;21083;50.898;4.902;2023-09-30T15:23:54;29.50;99.90
20654;DHT22;21083;50.898;4.902;2023-09-30T15:26:21;29.00;99.90
20654;DHT22;21083;50.898;4.902;2023-09-30T15:28:48;28.60;99.90
20654;DHT22;21083;50.898;4.902;2023-09-30T15:31:14;28.20;99.90
20654;DHT22;21083;50.898;4.902;2023-09-30T15:33:41;27.90;99.90
20654;DHT22;21083;50.898;4.902;2023-09-30T15:36:11;28.00;99.90
20654;DHT22;21083;50.898;4.902;2023-09-30T15:38:38;28.00;99.90
20654;DHT22;21083;50.898;4.902;2023-09-30T15:41:06;28.00;99.90